sensor_id;sensor_type;location;lat;lon;timestamp;temperature;humidity
50013;DHT22;35901;48.694;9.476;2023-07-30T00:00:22;17.00;99.90
50013;DHT22;35901;48.694;9.476;2023-07-30T00:02:48;17.00;99.90
50013;DHT22;35901;48.694;9.476;2023-07-30T00:05:14;16.90;99.90
50013;DHT22;35901;48.694;9.476;2023-07-30T00:07:39;17.00;99.90
50013;DHT22;35901;48.694;9.476;2023-07-30T00:10:05;17.00;99.90
50013;DHT22;35901;48.694;9.476;2023-07-30T00:12:31;17.00;99.90
50013;DHT22;35901;48.694;9.476;2023-07-30T00:14:57;17.00;99.90
50013;DHT22;35901;48.694;9.476;2023-07-30T00:17:22;17.00;99.90
50013;DHT22;35901;48.694;9.476;2023-07-30T00:19:48;17.00;99.90
50013;DHT22;35901;48.694;9.476;2023-07-30T00:22:14;17.00;99.90
50013;DHT22;35901;48.694;9.476;2023-07-30T00:24:39;17.00;99.90
50013;DHT22;35901;48.694;9.476;2023-07-30T00:27:05;17.00;99.90
50013;DHT22;35901;48.694;9.476;2023-07-30T00:29:31;17.00;99.90
50013;DHT22;35901;48.694;9.476;2023-07-30T00:31:57;17.00;99.90
50013;DHT22;35901;48.694;9.476;2023-07-30T00:34:22;17.00;99.90
50013;DHT22;35901;48.694;9.476;2023-07-30T00:36:48;16.90;99.90
50013;DHT22;35901;48.694;9.476;2023-07-30T00:39:14;16.90;99.90
50013;DHT22;35901;48.694;9.476;2023-07-30T00:41:39;16.90;99.90
50013;DHT22;35901;48.694;9.476;2023-07-30T00:44:05;16.90;99.90
50013;DHT22;35901;48.694;9.476;2023-07-30T00:46:31;16.90;99.90
50013;DHT22;35901;48.694;9.476;2023-07-30T00:48:56;16.80;99.90
50013;DHT22;35901;48.694;9.476;2023-07-30T00:51:23;16.80;99.90
50013;DHT22;35901;48.694;9.476;2023-07-30T00:53:49;16.80;99.90
50013;DHT22;35901;48.694;9.476;2023-07-30T00:56:15;16.80;99.90
50013;DHT22;35901;48.694;9.476;2023-07-30T00:58:43;16.80;99.90
50013;DHT22;35901;48.694;9.476;2023-07-30T01:01:11;16.80;99.90
50013;DHT22;35901;48.694;9.476;2023-07-30T01:03:37;16.80;99.90
50013;DHT22;35901;48.694;9.476;2023-07-30T01:06:02;16.80;99.90
50013;DHT22;35901;48.694;9.476;2023-07-30T01:08:28;16.80;99.90
50013;DHT22;35901;48.694;9.476;2023-07-30T01:10:54;16.80;99.90
50013;DHT22;35901;48.694;9.476;2023-07-30T01:13:20;16.80;99.90
50013;DHT22;35901;48.694;9.476;2023-07-30T01:15:47;16.80;99.90
50013;DHT22;35901;48.694;9.476;2023-07-30T01:18:13;16.70;99.90
50013;DHT22;35901;48.694;9.476;2023-07-30T01:20:38;16.60;99.90
50013;DHT22;35901;48.694;9.476;2023-07-30T01:23:04;16.60;99.90
50013;DHT22;35901;48.694;9.476;2023-07-30T01:25:33;16.60;99.90
50013;DHT22;35901;48.694;9.476;2023-07-30T01:28:01;16.60;99.90
50013;DHT22;35901;48.694;9.476;2023-07-30T01:30:38;16.60;99.90
50013;DHT22;35901;48.694;9.476;2023-07-30T01:33:06;16.60;99.90
50013;DHT22;35901;48.694;9.476;2023-07-30T01:35:32;16.70;99.90
50013;DHT22;35901;48.694;9.476;2023-07-30T01:37:58;16.70;99.90
50013;DHT22;35901;48.694;9.476;2023-07-30T01:40:27;16.80;99.90
50013;DHT22;35901;48.694;9.476;2023-07-30T01:42:53;16.80;99.90
50013;DHT22;35901;48.694;9.476;2023-07-30T01:45:19;16.80;99.90
50013;DHT22;35901;48.694;9.476;2023-07-30T01:47:44;16.80;99.90
50013;DHT22;35901;48.694;9.476;2023-07-30T01:50:10;16.80;99.90
50013;DHT22;35901;48.694;9.476;2023-07-30T01:52:36;16.80;99.90
50013;DHT22;35901;48.694;9.476;2023-07-30T01:55:02;16.80;99.90
50013;DHT22;35901;48.694;9.476;2023-07-30T01:57:27;16.80;99.90
50013;DHT22;35901;48.694;9.476;2023-07-30T01:59:53;16.90;99.90
50013;DHT22;35901;48.694;9.476;2023-07-30T02:02:19;16.90;99.90
50013;DHT22;35901;48.694;9.476;2023-07-30T02:04:45;16.90;99.90
50013;DHT22;35901;48.694;9.476;2023-07-30T02:07:10;17.00;99.90
50013;DHT22;35901;48.694;9.476;2023-07-30T02:09:36;17.00;99.90
50013;DHT22;35901;48.694;9.476;2023-07-30T02:12:01;17.00;99.90
50013;DHT22;35901;48.694;9.476;2023-07-30T02:14:27;17.00;99.90
50013;DHT22;35901;48.694;9.476;2023-07-30T02:16:59;17.00;99.90
50013;DHT22;35901;48.694;9.476;2023-07-30T02:19:24;17.00;99.90
50013;DHT22;35901;48.694;9.476;2023-07-30T02:21:50;17.00;99.90
50013;DHT22;35901;48.694;9.476;2023-07-30T02:24:16;17.00;99.90
50013;DHT22;35901;48.694;9.476;2023-07-30T02:26:41;16.90;99.90
50013;DHT22;35901;48.694;9.476;2023-07-30T02:29:07;16.90;99.90
50013;DHT22;35901;48.694;9.476;2023-07-30T02:31:33;16.90;99.90
50013;DHT22;35901;48.694;9.476;2023-07-30T02:33:58;16.90;99.90
50013;DHT22;35901;48.694;9.476;2023-07-30T02:36:24;16.80;99.90
50013;DHT22;35901;48.694;9.476;2023-07-30T02:38:50;16.80;99.90
50013;DHT22;35901;48.694;9.476;2023-07-30T02:41:16;16.80;99.90
50013;DHT22;35901;48.694;9.476;2023-07-30T02:43:42;16.70;99.90
50013;DHT22;35901;48.694;9.476;2023-07-30T02:46:08;16.60;99.90
50013;DHT22;35901;48.694;9.476;2023-07-30T02:48:33;16.60;99.90
50013;DHT22;35901;48.694;9.476;2023-07-30T02:50:59;16.60;99.90
50013;DHT22;35901;48.694;9.476;2023-07-30T02:53:25;16.60;99.90
50013;DHT22;35901;48.694;9.476;2023-07-30T02:55:51;16.70;99.90
50013;DHT22;35901;48.694;9.476;2023-07-30T02:58:16;16.70;99.90
50013;DHT22;35901;48.694;9.476;2023-07-30T03:00:42;16.80;99.90
50013;DHT22;35901;48.694;9.476;2023-07-30T03:03:08;16.70;99.90
50013;DHT22;35901;48.694;9.476;2023-07-30T03:05:33;16.70;99.90
50013;DHT22;35901;48.694;9.476;2023-07-30T03:07:59;16.70;99.90
50013;DHT22;35901;48.694;9.476;2023-07-30T03:10:25;16.60;99.90
50013;DHT22;35901;48.694;9.476;2023-07-30T03:12:50;16.60;99.90
50013;DHT22;35901;48.694;9.476;2023-07-30T03:15:16;16.60;99.90
50013;DHT22;35901;48.694;9.476;2023-07-30T03:17:42;16.50;99.90
50013;DHT22;35901;48.694;9.476;2023-07-30T03:20:08;16.40;99.90
50013;DHT22;35901;48.694;9.476;2023-07-30T03:22:34;16.40;99.90
50013;DHT22;35901;48.694;9.476;2023-07-30T03:25:00;16.30;99.90
50013;DHT22;35901;48.694;9.476;2023-07-30T03:27:25;16.20;99.90
50013;DHT22;35901;48.694;9.476;2023-07-30T03:29:51;16.20;99.90
50013;DHT22;35901;48.694;9.476;2023-07-30T03:32:17;16.20;99.90
50013;DHT22;35901;48.694;9.476;2023-07-30T03:34:42;16.20;99.90
50013;DHT22;35901;48.694;9.476;2023-07-30T03:37:08;16.20;99.90
50013;DHT22;35901;48.694;9.476;2023-07-30T03:39:34;16.20;99.90
50013;DHT22;35901;48.694;9.476;2023-07-30T03:41:59;16.20;99.90
50013;DHT22;35901;48.694;9.476;2023-07-30T03:44:25;16.20;99.90
50013;DHT22;35901;48.694;9.476;2023-07-30T03:46:51;16.20;99.90
50013;DHT22;35901;48.694;9.476;2023-07-30T03:49:16;16.10;99.90
50013;DHT22;35901;48.694;9.476;2023-07-30T03:51:42;16.10;99.90
50013;DHT22;35901;48.694;9.476;2023-07-30T03:54:08;16.10;99.90
50013;DHT22;35901;48.694;9.476;2023-07-30T03:56:33;16.10;99.90
50013;DHT22;35901;48.694;9.476;2023-07-30T03:58:59;16.00;99.90
50013;DHT22;35901;48.694;9.476;2023-07-30T04:01:25;16.00;99.90
50013;DHT22;35901;48.694;9.476;2023-07-30T04:03:50;16.00;99.90
50013;DHT22;35901;48.694;9.476;2023-07-30T04:06:16;16.00;99.90
50013;DHT22;35901;48.694;9.476;2023-07-30T04:08:42;16.10;99.90
50013;DHT22;35901;48.694;9.476;2023-07-30T04:11:08;16.10;99.90
50013;DHT22;35901;48.694;9.476;2023-07-30T04:13:34;16.20;99.90
50013;DHT22;35901;48.694;9.476;2023-07-30T04:16:00;16.10;99.90
50013;DHT22;35901;48.694;9.476;2023-07-30T04:18:25;16.10;99.90
50013;DHT22;35901;48.694;9.476;2023-07-30T04:20:54;16.10;99.90
50013;DHT22;35901;48.694;9.476;2023-07-30T04:23:20;16.20;99.90
50013;DHT22;35901;48.694;9.476;2023-07-30T04:25:49;16.20;99.90
50013;DHT22;35901;48.694;9.476;2023-07-30T04:28:15;16.20;99.90
50013;DHT22;35901;48.694;9.476;2023-07-30T04:30:42;16.20;99.90
50013;DHT22;35901;48.694;9.476;2023-07-30T04:33:08;16.30;99.90
50013;DHT22;35901;48.694;9.476;2023-07-30T04:35:36;16.30;99.90
50013;DHT22;35901;48.694;9.476;2023-07-30T04:38:01;16.40;99.90
50013;DHT22;35901;48.694;9.476;2023-07-30T04:40:27;16.40;99.90
50013;DHT22;35901;48.694;9.476;2023-07-30T04:42:53;16.50;99.90
50013;DHT22;35901;48.694;9.476;2023-07-30T04:45:19;16.50;99.90
50013;DHT22;35901;48.694;9.476;2023-07-30T04:47:47;16.50;99.90
50013;DHT22;35901;48.694;9.476;2023-07-30T04:50:13;16.50;99.90
50013;DHT22;35901;48.694;9.476;2023-07-30T04:52:39;16.50;99.90
50013;DHT22;35901;48.694;9.476;2023-07-30T04:55:05;16.50;99.90
50013;DHT22;35901;48.694;9.476;2023-07-30T04:57:30;16.50;99.90
50013;DHT22;35901;48.694;9.476;2023-07-30T04:59:56;16.50;99.90
50013;DHT22;35901;48.694;9.476;2023-07-30T05:02:22;16.50;99.90
50013;DHT22;35901;48.694;9.476;2023-07-30T05:04:47;16.50;99.90
50013;DHT22;35901;48.694;9.476;2023-07-30T05:07:13;16.50;99.90
50013;DHT22;35901;48.694;9.476;2023-07-30T05:09:39;16.50;99.90
50013;DHT22;35901;48.694;9.476;2023-07-30T05:12:04;16.60;99.90
50013;DHT22;35901;48.694;9.476;2023-07-30T05:14:30;16.60;99.90
50013;DHT22;35901;48.694;9.476;2023-07-30T05:16:56;16.60;99.90
50013;DHT22;35901;48.694;9.476;2023-07-30T05:19:21;16.60;99.90
50013;DHT22;35901;48.694;9.476;2023-07-30T05:21:47;16.60;99.90
50013;DHT22;35901;48.694;9.476;2023-07-30T05:24:12;16.60;99.90
50013;DHT22;35901;48.694;9.476;2023-07-30T05:26:38;16.60;99.90
50013;DHT22;35901;48.694;9.476;2023-07-30T05:29:04;16.70;99.90
50013;DHT22;35901;48.694;9.476;2023-07-30T05:31:29;16.80;99.90
50013;DHT22;35901;48.694;9.476;2023-07-30T05:33:55;16.90;99.90
50013;DHT22;35901;48.694;9.476;2023-07-30T05:36:21;17.00;99.90
50013;DHT22;35901;48.694;9.476;2023-07-30T05:38:46;17.10;99.90
50013;DHT22;35901;48.694;9.476;2023-07-30T05:41:12;17.40;99.90
50013;DHT22;35901;48.694;9.476;2023-07-30T05:43:38;17.60;99.90
50013;DHT22;35901;48.694;9.476;2023-07-30T05:46:04;17.50;99.90
50013;DHT22;35901;48.694;9.476;2023-07-30T05:48:29;17.50;99.90
50013;DHT22;35901;48.694;9.476;2023-07-30T05:50:55;17.60;99.90
50013;DHT22;35901;48.694;9.476;2023-07-30T05:53:20;17.70;99.90
50013;DHT22;35901;48.694;9.476;2023-07-30T05:55:46;17.90;99.90
50013;DHT22;35901;48.694;9.476;2023-07-30T05:58:12;18.50;99.90
50013;DHT22;35901;48.694;9.476;2023-07-30T06:00:37;18.50;99.90
50013;DHT22;35901;48.694;9.476;2023-07-30T06:03:03;18.30;99.90
50013;DHT22;35901;48.694;9.476;2023-07-30T06:05:29;18.20;99.90
50013;DHT22;35901;48.694;9.476;2023-07-30T06:07:54;18.10;99.90
50013;DHT22;35901;48.694;9.476;2023-07-30T06:10:20;18.10;99.90
50013;DHT22;35901;48.694;9.476;2023-07-30T06:12:46;18.10;99.90
50013;DHT22;35901;48.694;9.476;2023-07-30T06:15:11;18.20;99.90
50013;DHT22;35901;48.694;9.476;2023-07-30T06:17:37;18.30;99.90
50013;DHT22;35901;48.694;9.476;2023-07-30T06:20:03;18.20;99.90
50013;DHT22;35901;48.694;9.476;2023-07-30T06:22:29;18.30;99.90
50013;DHT22;35901;48.694;9.476;2023-07-30T06:24:54;18.40;99.90
50013;DHT22;35901;48.694;9.476;2023-07-30T06:27:20;18.60;99.90
50013;DHT22;35901;48.694;9.476;2023-07-30T06:29:46;19.00;99.90
50013;DHT22;35901;48.694;9.476;2023-07-30T06:32:12;19.10;99.90
50013;DHT22;35901;48.694;9.476;2023-07-30T06:34:38;19.40;99.90
50013;DHT22;35901;48.694;9.476;2023-07-30T06:37:04;19.90;99.90
50013;DHT22;35901;48.694;9.476;2023-07-30T06:39:29;19.70;99.90
50013;DHT22;35901;48.694;9.476;2023-07-30T06:41:55;19.50;99.90
50013;DHT22;35901;48.694;9.476;2023-07-30T06:44:21;19.50;99.90
50013;DHT22;35901;48.694;9.476;2023-07-30T06:46:49;19.60;99.90
50013;DHT22;35901;48.694;9.476;2023-07-30T06:49:15;19.70;99.90
50013;DHT22;35901;48.694;9.476;2023-07-30T06:51:41;19.60;99.90
50013;DHT22;35901;48.694;9.476;2023-07-30T06:54:06;19.50;99.90
50013;DHT22;35901;48.694;9.476;2023-07-30T06:56:32;19.40;99.90
50013;DHT22;35901;48.694;9.476;2023-07-30T06:58:58;19.40;99.90
50013;DHT22;35901;48.694;9.476;2023-07-30T07:01:23;19.40;99.90
50013;DHT22;35901;48.694;9.476;2023-07-30T07:03:49;19.40;99.90
50013;DHT22;35901;48.694;9.476;2023-07-30T07:06:15;19.50;99.90
50013;DHT22;35901;48.694;9.476;2023-07-30T07:08:40;19.50;99.90
50013;DHT22;35901;48.694;9.476;2023-07-30T07:11:06;19.50;99.90
50013;DHT22;35901;48.694;9.476;2023-07-30T07:13:32;19.50;99.90
50013;DHT22;35901;48.694;9.476;2023-07-30T07:15:57;19.60;99.90
50013;DHT22;35901;48.694;9.476;2023-07-30T07:18:23;19.70;99.90
50013;DHT22;35901;48.694;9.476;2023-07-30T07:20:49;19.80;99.90
50013;DHT22;35901;48.694;9.476;2023-07-30T07:23:14;20.00;99.90
50013;DHT22;35901;48.694;9.476;2023-07-30T07:25:40;20.50;99.90
50013;DHT22;35901;48.694;9.476;2023-07-30T07:28:06;20.60;99.90
50013;DHT22;35901;48.694;9.476;2023-07-30T07:30:34;20.60;99.90
50013;DHT22;35901;48.694;9.476;2023-07-30T07:33:01;20.50;99.90
50013;DHT22;35901;48.694;9.476;2023-07-30T07:35:27;20.30;99.90
50013;DHT22;35901;48.694;9.476;2023-07-30T07:37:53;20.10;99.90
50013;DHT22;35901;48.694;9.476;2023-07-30T07:40:19;20.10;99.90
50013;DHT22;35901;48.694;9.476;2023-07-30T07:42:44;20.50;99.90
50013;DHT22;35901;48.694;9.476;2023-07-30T07:45:10;21.00;99.90
50013;DHT22;35901;48.694;9.476;2023-07-30T07:47:36;21.20;99.90
50013;DHT22;35901;48.694;9.476;2023-07-30T07:50:01;21.00;99.90
50013;DHT22;35901;48.694;9.476;2023-07-30T07:52:27;20.70;99.90
50013;DHT22;35901;48.694;9.476;2023-07-30T07:54:53;20.40;99.90
50013;DHT22;35901;48.694;9.476;2023-07-30T07:57:18;20.00;99.90
50013;DHT22;35901;48.694;9.476;2023-07-30T07:59:44;19.60;99.90
50013;DHT22;35901;48.694;9.476;2023-07-30T08:02:13;19.30;99.90
50013;DHT22;35901;48.694;9.476;2023-07-30T08:04:39;19.00;99.90
50013;DHT22;35901;48.694;9.476;2023-07-30T08:07:05;18.80;99.90
50013;DHT22;35901;48.694;9.476;2023-07-30T08:09:31;18.50;99.90
50013;DHT22;35901;48.694;9.476;2023-07-30T08:11:57;18.20;99.90
50013;DHT22;35901;48.694;9.476;2023-07-30T08:14:25;18.00;99.90
50013;DHT22;35901;48.694;9.476;2023-07-30T08:16:51;18.00;99.90
50013;DHT22;35901;48.694;9.476;2023-07-30T08:19:17;18.00;99.90
50013;DHT22;35901;48.694;9.476;2023-07-30T08:21:43;18.00;99.90
50013;DHT22;35901;48.694;9.476;2023-07-30T08:24:08;18.00;99.90
50013;DHT22;35901;48.694;9.476;2023-07-30T08:26:34;18.10;99.90
50013;DHT22;35901;48.694;9.476;2023-07-30T08:29:00;18.20;99.90
50013;DHT22;35901;48.694;9.476;2023-07-30T08:31:25;18.30;99.90
50013;DHT22;35901;48.694;9.476;2023-07-30T08:33:51;18.30;99.90
50013;DHT22;35901;48.694;9.476;2023-07-30T08:36:16;18.40;99.90
50013;DHT22;35901;48.694;9.476;2023-07-30T08:38:42;18.50;99.90
50013;DHT22;35901;48.694;9.476;2023-07-30T08:41:08;18.60;99.90
50013;DHT22;35901;48.694;9.476;2023-07-30T08:43:34;18.80;99.90
50013;DHT22;35901;48.694;9.476;2023-07-30T08:46:00;19.00;99.90
50013;DHT22;35901;48.694;9.476;2023-07-30T08:48:26;19.30;99.90
50013;DHT22;35901;48.694;9.476;2023-07-30T08:50:53;19.70;99.90
50013;DHT22;35901;48.694;9.476;2023-07-30T08:53:21;20.10;99.90
50013;DHT22;35901;48.694;9.476;2023-07-30T08:55:48;20.30;99.90
50013;DHT22;35901;48.694;9.476;2023-07-30T08:58:14;20.50;99.90
50013;DHT22;35901;48.694;9.476;2023-07-30T09:00:42;20.50;99.90
50013;DHT22;35901;48.694;9.476;2023-07-30T09:03:09;20.50;99.90
50013;DHT22;35901;48.694;9.476;2023-07-30T09:05:38;20.40;99.90
50013;DHT22;35901;48.694;9.476;2023-07-30T09:08:04;20.50;99.90
50013;DHT22;35901;48.694;9.476;2023-07-30T09:10:30;20.70;99.90
50013;DHT22;35901;48.694;9.476;2023-07-30T09:12:57;20.90;99.90
50013;DHT22;35901;48.694;9.476;2023-07-30T09:15:37;21.00;99.90
50013;DHT22;35901;48.694;9.476;2023-07-30T09:18:04;21.10;99.90
50013;DHT22;35901;48.694;9.476;2023-07-30T09:20:41;21.20;99.90
50013;DHT22;35901;48.694;9.476;2023-07-30T09:23:07;21.30;99.90
50013;DHT22;35901;48.694;9.476;2023-07-30T09:25:35;21.90;99.90
50013;DHT22;35901;48.694;9.476;2023-07-30T09:28:00;22.60;99.90
50013;DHT22;35901;48.694;9.476;2023-07-30T09:30:27;22.90;99.90
50013;DHT22;35901;48.694;9.476;2023-07-30T09:32:56;23.00;99.90
50013;DHT22;35901;48.694;9.476;2023-07-30T09:35:23;23.20;99.90
50013;DHT22;35901;48.694;9.476;2023-07-30T09:37:50;23.40;99.90
50013;DHT22;35901;48.694;9.476;2023-07-30T09:40:34;23.10;99.90
50013;DHT22;35901;48.694;9.476;2023-07-30T09:43:05;22.80;99.90
50013;DHT22;35901;48.694;9.476;2023-07-30T09:45:34;22.30;99.90
50013;DHT22;35901;48.694;9.476;2023-07-30T09:48:05;21.90;99.90
50013;DHT22;35901;48.694;9.476;2023-07-30T09:50:31;21.70;99.90
50013;DHT22;35901;48.694;9.476;2023-07-30T09:53:01;21.40;99.90
50013;DHT22;35901;48.694;9.476;2023-07-30T09:55:27;21.20;99.90
50013;DHT22;35901;48.694;9.476;2023-07-30T09:57:53;21.20;99.90
50013;DHT22;35901;48.694;9.476;2023-07-30T10:00:18;21.00;99.90
50013;DHT22;35901;48.694;9.476;2023-07-30T10:02:49;20.90;99.90
50013;DHT22;35901;48.694;9.476;2023-07-30T10:05:16;20.80;99.90
50013;DHT22;35901;48.694;9.476;2023-07-30T10:07:49;20.60;99.90
50013;DHT22;35901;48.694;9.476;2023-07-30T10:10:18;20.10;99.90
50013;DHT22;35901;48.694;9.476;2023-07-30T10:12:44;19.00;99.90
50013;DHT22;35901;48.694;9.476;2023-07-30T10:15:10;18.20;99.90
50013;DHT22;35901;48.694;9.476;2023-07-30T10:17:35;17.80;99.90
50013;DHT22;35901;48.694;9.476;2023-07-30T10:20:22;17.60;99.90
50013;DHT22;35901;48.694;9.476;2023-07-30T10:22:54;17.60;99.90
50013;DHT22;35901;48.694;9.476;2023-07-30T10:25:22;17.70;99.90
50013;DHT22;35901;48.694;9.476;2023-07-30T10:27:50;17.80;99.90
50013;DHT22;35901;48.694;9.476;2023-07-30T10:30:17;18.00;99.90
50013;DHT22;35901;48.694;9.476;2023-07-30T10:35:45;18.60;99.90
50013;DHT22;35901;48.694;9.476;2023-07-30T10:40:46;19.30;99.90
50013;DHT22;35901;48.694;9.476;2023-07-30T10:43:30;19.70;99.90
50013;DHT22;35901;48.694;9.476;2023-07-30T10:45:56;20.10;99.90
50013;DHT22;35901;48.694;9.476;2023-07-30T10:48:42;20.50;99.90
50013;DHT22;35901;48.694;9.476;2023-07-30T10:51:14;20.80;99.90
50013;DHT22;35901;48.694;9.476;2023-07-30T10:53:48;20.90;99.90
50013;DHT22;35901;48.694;9.476;2023-07-30T10:56:17;21.00;99.90
50013;DHT22;35901;48.694;9.476;2023-07-30T10:58:49;21.20;99.90
50013;DHT22;35901;48.694;9.476;2023-07-30T11:01:16;21.70;99.90
50013;DHT22;35901;48.694;9.476;2023-07-30T11:03:42;21.90;99.90
50013;DHT22;35901;48.694;9.476;2023-07-30T11:06:10;22.00;99.90
50013;DHT22;35901;48.694;9.476;2023-07-30T11:08:39;22.30;99.90
50013;DHT22;35901;48.694;9.476;2023-07-30T11:11:07;22.60;99.90
50013;DHT22;35901;48.694;9.476;2023-07-30T11:13:41;23.00;99.90
50013;DHT22;35901;48.694;9.476;2023-07-30T11:16:08;23.10;99.90
50013;DHT22;35901;48.694;9.476;2023-07-30T11:18:38;23.20;99.90
50013;DHT22;35901;48.694;9.476;2023-07-30T11:21:09;23.50;99.90
50013;DHT22;35901;48.694;9.476;2023-07-30T11:23:36;23.80;99.90
50013;DHT22;35901;48.694;9.476;2023-07-30T11:26:03;24.00;99.90
50013;DHT22;35901;48.694;9.476;2023-07-30T11:28:39;24.20;99.90
50013;DHT22;35901;48.694;9.476;2023-07-30T11:31:10;24.40;99.90
50013;DHT22;35901;48.694;9.476;2023-07-30T11:33:46;24.50;99.90
50013;DHT22;35901;48.694;9.476;2023-07-30T11:36:21;24.70;99.90
50013;DHT22;35901;48.694;9.476;2023-07-30T11:38:48;25.00;99.90
50013;DHT22;35901;48.694;9.476;2023-07-30T11:41:14;24.60;99.90
50013;DHT22;35901;48.694;9.476;2023-07-30T11:43:42;24.40;99.90
50013;DHT22;35901;48.694;9.476;2023-07-30T11:46:12;24.40;99.90
50013;DHT22;35901;48.694;9.476;2023-07-30T11:48:40;24.50;99.90
50013;DHT22;35901;48.694;9.476;2023-07-30T11:51:06;24.40;99.90
50013;DHT22;35901;48.694;9.476;2023-07-30T11:53:48;24.00;99.90
50013;DHT22;35901;48.694;9.476;2023-07-30T11:56:33;23.70;99.90
50013;DHT22;35901;48.694;9.476;2023-07-30T11:59:01;23.90;99.90
50013;DHT22;35901;48.694;9.476;2023-07-30T12:01:32;23.80;99.90
50013;DHT22;35901;48.694;9.476;2023-07-30T12:04:01;23.50;99.90
50013;DHT22;35901;48.694;9.476;2023-07-30T12:09:23;23.10;99.90
50013;DHT22;35901;48.694;9.476;2023-07-30T12:11:52;22.80;99.90
50013;DHT22;35901;48.694;9.476;2023-07-30T12:14:18;22.50;99.90
50013;DHT22;35901;48.694;9.476;2023-07-30T12:16:45;22.40;99.90
50013;DHT22;35901;48.694;9.476;2023-07-30T12:19:11;22.20;99.90
50013;DHT22;35901;48.694;9.476;2023-07-30T12:21:36;22.10;99.90
50013;DHT22;35901;48.694;9.476;2023-07-30T12:24:02;22.00;99.90
50013;DHT22;35901;48.694;9.476;2023-07-30T12:26:29;21.90;99.90
50013;DHT22;35901;48.694;9.476;2023-07-30T12:28:54;21.80;99.90
50013;DHT22;35901;48.694;9.476;2023-07-30T12:31:20;21.90;99.90
50013;DHT22;35901;48.694;9.476;2023-07-30T12:33:46;22.00;99.90
50013;DHT22;35901;48.694;9.476;2023-07-30T12:36:12;22.10;99.90
50013;DHT22;35901;48.694;9.476;2023-07-30T12:38:39;22.30;99.90
50013;DHT22;35901;48.694;9.476;2023-07-30T12:41:04;22.50;99.90
50013;DHT22;35901;48.694;9.476;2023-07-30T12:43:30;22.50;99.90
50013;DHT22;35901;48.694;9.476;2023-07-30T12:45:56;22.70;99.90
50013;DHT22;35901;48.694;9.476;2023-07-30T12:48:22;22.90;99.90
50013;DHT22;35901;48.694;9.476;2023-07-30T12:50:48;23.30;99.90
50013;DHT22;35901;48.694;9.476;2023-07-30T12:53:14;23.60;99.90
50013;DHT22;35901;48.694;9.476;2023-07-30T12:55:40;23.70;99.90
50013;DHT22;35901;48.694;9.476;2023-07-30T12:58:06;23.80;99.90
50013;DHT22;35901;48.694;9.476;2023-07-30T13:00:33;23.90;99.90
50013;DHT22;35901;48.694;9.476;2023-07-30T13:03:02;23.90;99.90
50013;DHT22;35901;48.694;9.476;2023-07-30T13:05:28;24.10;99.90
50013;DHT22;35901;48.694;9.476;2023-07-30T13:07:55;24.40;99.90
50013;DHT22;35901;48.694;9.476;2023-07-30T13:10:21;24.60;99.90
50013;DHT22;35901;48.694;9.476;2023-07-30T13:12:46;24.60;99.90
50013;DHT22;35901;48.694;9.476;2023-07-30T13:15:12;24.20;99.90
50013;DHT22;35901;48.694;9.476;2023-07-30T13:17:38;24.00;99.90
50013;DHT22;35901;48.694;9.476;2023-07-30T13:20:05;23.90;99.90
50013;DHT22;35901;48.694;9.476;2023-07-30T13:22:31;24.00;99.90
50013;DHT22;35901;48.694;9.476;2023-07-30T13:24:57;24.40;99.90
50013;DHT22;35901;48.694;9.476;2023-07-30T13:27:22;24.60;99.90
50013;DHT22;35901;48.694;9.476;2023-07-30T13:29:48;24.90;98.70
50013;DHT22;35901;48.694;9.476;2023-07-30T13:32:14;24.50;99.20
50013;DHT22;35901;48.694;9.476;2023-07-30T13:34:40;24.20;99.90
50013;DHT22;35901;48.694;9.476;2023-07-30T13:37:06;24.40;99.90
50013;DHT22;35901;48.694;9.476;2023-07-30T13:39:32;24.60;99.90
50013;DHT22;35901;48.694;9.476;2023-07-30T13:41:58;24.70;99.90
50013;DHT22;35901;48.694;9.476;2023-07-30T13:44:23;24.80;99.90
50013;DHT22;35901;48.694;9.476;2023-07-30T13:46:49;24.90;99.50
50013;DHT22;35901;48.694;9.476;2023-07-30T13:49:16;24.80;98.20
50013;DHT22;35901;48.694;9.476;2023-07-30T13:51:42;24.60;98.50
50013;DHT22;35901;48.694;9.476;2023-07-30T13:54:07;24.60;98.90
50013;DHT22;35901;48.694;9.476;2023-07-30T13:56:33;24.70;99.60
50013;DHT22;35901;48.694;9.476;2023-07-30T13:58:59;25.10;99.90
50013;DHT22;35901;48.694;9.476;2023-07-30T14:01:25;25.50;98.70
50013;DHT22;35901;48.694;9.476;2023-07-30T14:03:51;25.40;98.10
50013;DHT22;35901;48.694;9.476;2023-07-30T14:06:17;24.90;97.40
50013;DHT22;35901;48.694;9.476;2023-07-30T14:08:43;24.40;97.50
50013;DHT22;35901;48.694;9.476;2023-07-30T14:11:09;23.90;98.00
50013;DHT22;35901;48.694;9.476;2023-07-30T14:13:36;23.60;98.50
50013;DHT22;35901;48.694;9.476;2023-07-30T14:16:01;23.30;98.70
50013;DHT22;35901;48.694;9.476;2023-07-30T14:18:27;23.30;99.50
50013;DHT22;35901;48.694;9.476;2023-07-30T14:20:52;23.70;97.80
50013;DHT22;35901;48.694;9.476;2023-07-30T14:23:18;23.70;97.90
50013;DHT22;35901;48.694;9.476;2023-07-30T14:25:44;24.00;98.00
50013;DHT22;35901;48.694;9.476;2023-07-30T14:28:10;24.20;96.50
50013;DHT22;35901;48.694;9.476;2023-07-30T14:30:35;24.30;96.00
50013;DHT22;35901;48.694;9.476;2023-07-30T14:33:03;24.40;97.00
50013;DHT22;35901;48.694;9.476;2023-07-30T14:35:28;24.50;97.30
50013;DHT22;35901;48.694;9.476;2023-07-30T14:37:54;24.60;96.70
50013;DHT22;35901;48.694;9.476;2023-07-30T14:40:20;24.40;96.00
50013;DHT22;35901;48.694;9.476;2023-07-30T14:42:46;24.10;96.80
50013;DHT22;35901;48.694;9.476;2023-07-30T14:45:11;24.00;97.20
50013;DHT22;35901;48.694;9.476;2023-07-30T14:47:37;24.00;96.70
50013;DHT22;35901;48.694;9.476;2023-07-30T14:50:05;23.60;96.10
50013;DHT22;35901;48.694;9.476;2023-07-30T14:52:31;23.10;96.50
50013;DHT22;35901;48.694;9.476;2023-07-30T14:54:57;22.90;97.30
50013;DHT22;35901;48.694;9.476;2023-07-30T14:57:23;23.10;97.50
50013;DHT22;35901;48.694;9.476;2023-07-30T14:59:49;23.20;97.00
50013;DHT22;35901;48.694;9.476;2023-07-30T15:02:20;23.20;97.30
50013;DHT22;35901;48.694;9.476;2023-07-30T15:04:49;23.20;96.80
50013;DHT22;35901;48.694;9.476;2023-07-30T15:07:15;23.00;96.80
50013;DHT22;35901;48.694;9.476;2023-07-30T15:09:40;22.70;96.90
50013;DHT22;35901;48.694;9.476;2023-07-30T15:12:07;22.50;97.40
50013;DHT22;35901;48.694;9.476;2023-07-30T15:14:34;22.70;97.40
50013;DHT22;35901;48.694;9.476;2023-07-30T15:17:00;22.90;96.10
50013;DHT22;35901;48.694;9.476;2023-07-30T15:19:25;23.00;96.70
50013;DHT22;35901;48.694;9.476;2023-07-30T15:21:51;23.10;96.60
50013;DHT22;35901;48.694;9.476;2023-07-30T15:24:17;23.10;96.30
50013;DHT22;35901;48.694;9.476;2023-07-30T15:26:43;22.80;96.50
50013;DHT22;35901;48.694;9.476;2023-07-30T15:29:09;22.70;95.50
50013;DHT22;35901;48.694;9.476;2023-07-30T15:31:34;22.50;95.30
50013;DHT22;35901;48.694;9.476;2023-07-30T15:34:00;22.40;95.40